Dunkirk, Ohio
Current Conditions -  °F | °C
As of 4:53 AM on Saturday 25 Oct 2014 (Local Time) from KFDY Reporting Station
Few Clouds Few Clouds  
Wind Chill: 51°   Ceiling: Unl
Heat Index: 51°   Visibility: 7mi
Dew Point: 47°   Wind: 8mph
Humidity: 86%   Direction: 220°SW
Pressure: 29.93"   Gusts: NA
Location:  40.79°N, 83.64°W
Report Text: KFDY 250853Z AUTO 22007KT 7SM FEW110 11/08 A2993 RMK AO2 SLP131 T01060083 58013
Loading
Personal Weather Stations






























Interactive Weather Map
Tropical Storm Tracking
New forecast layout! Learn more

10-Day Weather Forecast

Advertisements
Track Severe Weather on mobile